Crown Princess — ZCDM6 — position and weather

sailwx.info

Track history (hours):
 
Tides and Currents Weather Stations Pressure Air Temp Water Temp Dewpoint Dewpoint Depression Visibility Wind Speed Wind Dir Waves Ship Positions

Crown Princess

Last reported at 2014-Jul-21 08:29 UTC. Time now 2014-Jul-23 01:16 UTC.
Position N 54°20' W 131°05'.

Type: Ship. MMSI: 310500000.

Date/timePositionNaut miles runAvg speedWind from/ knotsBaromVisibWave heightAir tempDewpointWater temp
2014-Jul-21 08:29N 54°20' W 131°05'22513.3
2014-Jul-20 15:32N 51°05' W 128°01'1111.7
2014-Jul-20 14:33N 50°58' W 127°46'1212.1
2014-Jul-20 13:33N 50°51' W 127°31'1312.7
2014-Jul-20 12:33N 50°45' W 127°13'1413.5
2014-Jul-20 11:33N 50°41' W 126°52'7614.1
2014-Jul-20 06:10N 50°00' W 125°12'1215.5
2014-Jul-20 05:23N 49°51' W 124°59'1315.6
2014-Jul-20 04:31N 49°41' W 124°45'1515.6
2014-Jul-20 03:33N 49°30' W 124°29'1616.3
2014-Jul-20 02:33N 49°23' W 124°07'1717.0
2014-Jul-20 01:33N 49°18' W 123°42'1616.1
2014-Jul-20 00:33N 49°19' W 123°17'7 6.9
2014-Jul-19 23:32N 49°17' W 123°06'0 0.0
2014-Jul-19 22:32N 49°17' W 123°06'0 0.0
2014-Jul-19 21:31N 49°17' W 123°06'0 0.0
2014-Jul-19 20:31N 49°17' W 123°06'0 0.0
2014-Jul-19 19:30N 49°17' W 123°06'0 0.0
2014-Jul-19 18:33N 49°17' W 123°06'0 0.0
2014-Jul-19 17:32N 49°17' W 123°06'0 0.0
2014-Jul-19 16:26N 49°17' W 123°06'0 0.0
2014-Jul-19 15:32N 49°17' W 123°06'0 0.0
2014-Jul-19 14:31N 49°17' W 123°06'0 0.1
2014-Jul-19 13:33N 49°17' W 123°06'7 7.1
2014-Jul-19 12:34N 49°19' W 123°17'1615.9
2014-Jul-19 11:34N 49°19' W 123°41'1616.0
2014-Jul-19 10:34N 49°23' W 124°05'1312.8
2014-Jul-19 09:33N 49°27' W 124°24'1212.3
2014-Jul-19 08:33N 49°36' W 124°37'1312.5
2014-Jul-19 07:31N 49°45' W 124°51'1312.9
2014-Jul-19 06:33N 49°55' W 125°04'1413.0
2014-Jul-19 05:26N 50°06' W 125°18'7214.1
2014-Jul-19 00:23N 50°42' W 126°55'1416.8
2014-Jul-18 23:32N 50°47' W 127°16'1616.4
2014-Jul-18 22:33N 50°54' W 127°38'1515.0
2014-Jul-18 21:32N 51°04' W 127°58'22115.5
2014-Jul-18 07:19N 54°14' W 131°01'  
2014-Jul-15 04:16N 58°14' W 135°33'912.2
2014-Jul-15 03:33N 58°18' W 135°47'10 9.6
2014-Jul-15 02:33N 58°26' W 135°59'1313.2
2014-Jul-15 01:33N 58°39' W 136°04'1513.9
2014-Jul-15 00:31N 58°48' W 136°26'10 1.7
2014-Jul-14 18:33N 58°41' W 136°11'1313.6
2014-Jul-14 17:33N 58°28' W 136°02'8 7.8
2014-Jul-14 16:32N 58°20' W 136°04'  
Track history (hours):
 
Tides and Currents Weather Stations Pressure Air Temp Water Temp Dewpoint Dewpoint Depression Visibility Wind Speed Wind Dir Waves Ship Positions

Crown Princess

Last reported at 2014-Jul-21 08:29 UTC. Time now 2014-Jul-23 01:16 UTC.
Position N 54°20' W 131°05'.

Type: Ship. MMSI: 310500000.

Date/timePositionNaut miles runAvg speedWind from/ knotsBaromVisibWave heightAir tempDewpointWater temp
2014-Jul-21 08:29N 54°20' W 131°05'22513.3
2014-Jul-20 15:32N 51°05' W 128°01'1111.7
2014-Jul-20 14:33N 50°58' W 127°46'1212.1
2014-Jul-20 13:33N 50°51' W 127°31'1312.7
2014-Jul-20 12:33N 50°45' W 127°13'1413.5
2014-Jul-20 11:33N 50°41' W 126°52'7614.1
2014-Jul-20 06:10N 50°00' W 125°12'1215.5
2014-Jul-20 05:23N 49°51' W 124°59'1315.6
2014-Jul-20 04:31N 49°41' W 124°45'1515.6
2014-Jul-20 03:33N 49°30' W 124°29'1616.3
2014-Jul-20 02:33N 49°23' W 124°07'1717.0
2014-Jul-20 01:33N 49°18' W 123°42'1616.1
2014-Jul-20 00:33N 49°19' W 123°17'7 6.9
2014-Jul-19 23:32N 49°17' W 123°06'0 0.0
2014-Jul-19 22:32N 49°17' W 123°06'0 0.0
2014-Jul-19 21:31N 49°17' W 123°06'0 0.0
2014-Jul-19 20:31N 49°17' W 123°06'0 0.0
2014-Jul-19 19:30N 49°17' W 123°06'0 0.0
2014-Jul-19 18:33N 49°17' W 123°06'0 0.0
2014-Jul-19 17:32N 49°17' W 123°06'0 0.0
2014-Jul-19 16:26N 49°17' W 123°06'0 0.0
2014-Jul-19 15:32N 49°17' W 123°06'0 0.0
2014-Jul-19 14:31N 49°17' W 123°06'0 0.1
2014-Jul-19 13:33N 49°17' W 123°06'7 7.1
2014-Jul-19 12:34N 49°19' W 123°17'1615.9
2014-Jul-19 11:34N 49°19' W 123°41'1616.0
2014-Jul-19 10:34N 49°23' W 124°05'1312.8
2014-Jul-19 09:33N 49°27' W 124°24'1212.3
2014-Jul-19 08:33N 49°36' W 124°37'1312.5
2014-Jul-19 07:31N 49°45' W 124°51'1312.9
2014-Jul-19 06:33N 49°55' W 125°04'1413.0
2014-Jul-19 05:26N 50°06' W 125°18'7214.1
2014-Jul-19 00:23N 50°42' W 126°55'1416.8
2014-Jul-18 23:32N 50°47' W 127°16'1616.4
2014-Jul-18 22:33N 50°54' W 127°38'1515.0
2014-Jul-18 21:32N 51°04' W 127°58'22115.5
2014-Jul-18 07:19N 54°14' W 131°01'  
2014-Jul-15 04:16N 58°14' W 135°33'912.2
2014-Jul-15 03:33N 58°18' W 135°47'10 9.6
2014-Jul-15 02:33N 58°26' W 135°59'1313.2
2014-Jul-15 01:33N 58°39' W 136°04'1513.9
2014-Jul-15 00:31N 58°48' W 136°26'10 1.7
2014-Jul-14 18:33N 58°41' W 136°11'1313.6
2014-Jul-14 17:33N 58°28' W 136°02'8 7.8
2014-Jul-14 16:32N 58°20' W 136°04'  

Dump ship's entire track history